createdAt,value
2017-12-19T00:00:48.537Z,10.70
2017-12-19T00:03:16.845Z,10.60
2017-12-19T00:05:45.112Z,11.47
2017-12-19T00:08:13.419Z,10.83
2017-12-19T00:10:42.012Z,10.50
2017-12-19T00:13:10.424Z,11.52
2017-12-19T00:15:38.711Z,10.03
2017-12-19T00:18:07.016Z,11.20
2017-12-19T00:20:35.302Z,12.93
2017-12-19T00:23:04.041Z,12.80
2017-12-19T00:25:32.328Z,12.70
2017-12-19T00:28:00.610Z,11.10
2017-12-19T00:30:28.900Z,10.87
2017-12-19T00:32:57.204Z,10.90
2017-12-19T00:35:25.482Z,10.73
2017-12-19T00:37:53.771Z,11.20
2017-12-19T00:40:22.418Z,11.88
2017-12-19T00:42:50.627Z,11.30
2017-12-19T00:45:18.927Z,11.75
2017-12-19T00:47:47.212Z,10.90
2017-12-19T00:50:15.606Z,10.97
2017-12-19T00:52:43.830Z,11.97
2017-12-19T00:55:12.130Z,11.60
2017-12-19T00:57:40.424Z,11.10
2017-12-19T01:00:08.956Z,12.13
2017-12-19T01:02:37.231Z,10.83
2017-12-19T01:05:05.657Z,10.88
2017-12-19T01:07:33.932Z,11.03
2017-12-19T01:10:02.210Z,10.50
2017-12-19T01:12:30.496Z,11.03
2017-12-19T01:14:58.771Z,12.00
2017-12-19T01:17:27.063Z,11.50
2017-12-19T01:19:55.339Z,10.88
2017-12-19T01:22:23.653Z,10.77
2017-12-19T01:24:51.930Z,10.90
2017-12-19T01:27:20.232Z,11.20
2017-12-19T01:29:48.494Z,10.87
2017-12-19T01:32:17.194Z,11.00
2017-12-19T01:34:45.436Z,10.70
2017-12-19T01:37:13.735Z,10.50
2017-12-19T01:39:42.023Z,11.73
2017-12-19T01:42:10.296Z,11.00
2017-12-19T01:44:39.598Z,10.60
2017-12-19T01:47:07.872Z,10.27
2017-12-19T01:49:36.228Z,10.50
2017-12-19T01:52:04.505Z,9.90
2017-12-19T01:54:32.817Z,9.10
2017-12-19T01:57:01.104Z,10.63
2017-12-19T01:59:29.560Z,10.30
2017-12-19T02:01:57.858Z,9.03
2017-12-19T02:04:26.148Z,11.10
2017-12-19T02:06:54.431Z,12.00
2017-12-19T02:09:22.729Z,11.50
2017-12-19T02:11:51.038Z,11.87
2017-12-19T02:14:19.303Z,11.53
2017-12-19T02:16:47.608Z,11.80
2017-12-19T02:19:15.884Z,10.18
2017-12-19T02:21:44.187Z,11.30
2017-12-19T02:24:12.455Z,11.47
2017-12-19T02:26:40.772Z,10.80
2017-12-19T02:29:09.037Z,10.63
2017-12-19T02:31:37.342Z,10.10
2017-12-19T02:34:05.619Z,9.97
2017-12-19T02:36:34.226Z,10.13
2017-12-19T02:39:02.503Z,10.87
2017-12-19T02:41:30.822Z,11.63
2017-12-19T02:43:59.116Z,9.70
2017-12-19T02:46:27.419Z,9.93
2017-12-19T02:48:55.709Z,10.17
2017-12-19T02:51:23.976Z,10.85
2017-12-19T02:53:52.267Z,10.00
2017-12-19T02:56:20.538Z,10.55
2017-12-19T02:58:48.849Z,9.82
2017-12-19T03:01:17.127Z,10.30
2017-12-19T03:03:45.456Z,10.30
2017-12-19T03:06:13.748Z,9.77
2017-12-19T03:08:41.982Z,10.07
2017-12-19T03:11:10.283Z,10.10
2017-12-19T03:13:38.539Z,9.90
2017-12-19T03:16:06.940Z,10.20
2017-12-19T03:18:35.205Z,10.97
2017-12-19T03:21:03.489Z,11.00
2017-12-19T03:23:31.972Z,10.57
2017-12-19T03:26:00.279Z,10.07
2017-12-19T03:28:28.549Z,11.07
2017-12-19T03:30:56.882Z,10.00
2017-12-19T03:33:25.161Z,10.70
2017-12-19T03:35:53.438Z,9.97
2017-12-19T03:38:21.751Z,9.80
2017-12-19T03:40:50.107Z,9.88
2017-12-19T03:43:18.377Z,10.60
2017-12-19T03:45:46.659Z,10.77
2017-12-19T03:48:14.960Z,9.90
2017-12-19T03:50:43.220Z,10.63
2017-12-19T03:53:11.515Z,10.37
2017-12-19T03:55:39.851Z,10.53
2017-12-19T03:58:08.162Z,9.60
2017-12-19T04:00:36.467Z,9.80
2017-12-19T04:03:05.299Z,9.90
2017-12-19T04:05:33.589Z,10.60
2017-12-19T04:08:01.868Z,10.60
2017-12-19T04:10:30.318Z,10.10
2017-12-19T04:12:58.547Z,10.30
2017-12-19T04:15:26.867Z,10.33
2017-12-19T04:17:55.138Z,11.10
2017-12-19T04:20:23.422Z,10.23
2017-12-19T04:22:51.737Z,10.20
2017-12-19T04:25:20.020Z,10.95
2017-12-19T04:27:48.376Z,12.03
2017-12-19T04:30:16.612Z,12.10
2017-12-19T04:32:44.924Z,11.87
2017-12-19T04:35:13.187Z,12.37
2017-12-19T04:37:41.487Z,12.70
2017-12-19T04:40:09.778Z,12.97
2017-12-19T04:42:38.116Z,13.37
2017-12-19T04:45:06.397Z,13.53
2017-12-19T04:47:34.693Z,13.20
2017-12-19T04:50:02.957Z,13.20
2017-12-19T04:52:31.233Z,14.10
2017-12-19T04:54:59.527Z,13.20
2017-12-19T04:57:27.798Z,13.17
2017-12-19T04:59:56.105Z,14.37
2017-12-19T05:02:24.375Z,13.90
2017-12-19T05:04:52.671Z,12.73
2017-12-19T05:07:20.938Z,12.35
2017-12-19T05:09:49.251Z,12.40
2017-12-19T05:12:17.552Z,13.50
2017-12-19T05:14:45.852Z,13.27
2017-12-19T05:17:14.133Z,11.57
2017-12-19T05:19:42.401Z,12.50
2017-12-19T05:22:10.704Z,12.75
2017-12-19T05:24:39.034Z,11.33
2017-12-19T05:27:07.340Z,13.13
2017-12-19T05:29:35.618Z,12.05
2017-12-19T05:32:03.914Z,11.65
2017-12-19T05:34:32.221Z,11.30
2017-12-19T05:37:00.508Z,11.93
2017-12-19T05:39:28.801Z,11.60
2017-12-19T05:41:57.104Z,11.07
2017-12-19T05:44:25.392Z,11.00
2017-12-19T05:46:53.704Z,12.17
2017-12-19T05:49:22.008Z,11.73
2017-12-19T05:51:50.279Z,12.70
2017-12-19T05:54:18.580Z,10.80
2017-12-19T05:56:46.847Z,12.30
2017-12-19T05:59:15.159Z,12.27
2017-12-19T06:01:43.426Z,11.83
2017-12-19T06:04:11.739Z,11.05
2017-12-19T06:06:40.055Z,11.63
2017-12-19T06:09:08.311Z,12.33
2017-12-19T06:11:36.601Z,11.20
2017-12-19T06:14:04.868Z,11.20
2017-12-19T06:16:33.159Z,11.30
2017-12-19T06:19:01.431Z,10.83
2017-12-19T06:21:29.719Z,10.27
2017-12-19T06:23:58.100Z,10.73
2017-12-19T06:26:26.396Z,11.17
2017-12-19T06:28:54.660Z,9.97
2017-12-19T06:31:22.966Z,11.00
2017-12-19T06:33:51.260Z,12.85
2017-12-19T06:36:19.864Z,12.80
2017-12-19T06:38:48.175Z,11.07
2017-12-19T06:41:16.447Z,11.63
2017-12-19T06:43:44.754Z,11.00
2017-12-19T06:46:13.015Z,10.07
2017-12-19T06:48:41.335Z,11.17
2017-12-19T06:51:09.618Z,11.07
2017-12-19T06:53:37.911Z,10.98
2017-12-19T06:56:06.189Z,11.47
2017-12-19T06:58:34.491Z,12.40
2017-12-19T07:01:02.824Z,11.90
2017-12-19T07:03:31.129Z,12.10
2017-12-19T07:05:59.391Z,12.07
2017-12-19T07:08:27.663Z,11.68
2017-12-19T07:10:55.985Z,11.70
2017-12-19T07:13:24.284Z,11.27
2017-12-19T07:15:52.586Z,11.50
2017-12-19T07:18:20.860Z,12.30
2017-12-19T07:20:49.148Z,12.83
2017-12-19T07:23:17.428Z,13.43
2017-12-19T07:25:45.781Z,17.27
2017-12-19T07:28:14.056Z,12.85
2017-12-19T07:30:42.372Z,12.67
2017-12-19T07:33:10.696Z,10.55
2017-12-19T07:35:38.990Z,12.60
2017-12-19T07:38:07.300Z,11.70
2017-12-19T07:40:35.560Z,12.03
2017-12-19T07:43:03.849Z,11.83
2017-12-19T07:45:32.116Z,12.90
2017-12-19T07:48:00.439Z,12.40
2017-12-19T07:50:28.744Z,12.27
2017-12-19T07:52:57.011Z,11.73
2017-12-19T07:55:25.288Z,11.53
2017-12-19T07:57:53.583Z,11.50
2017-12-19T08:00:21.875Z,11.43
2017-12-19T08:02:50.196Z,12.40
2017-12-19T08:05:18.512Z,14.93
2017-12-19T08:07:46.784Z,13.20
2017-12-19T08:10:15.070Z,12.02
2017-12-19T08:12:43.367Z,11.80
2017-12-19T08:15:11.660Z,11.20
2017-12-19T08:17:39.939Z,11.87
2017-12-19T08:20:08.236Z,12.83
2017-12-19T08:22:36.509Z,11.50
2017-12-19T08:25:04.816Z,13.60
2017-12-19T08:27:33.166Z,11.77
2017-12-19T08:30:01.441Z,11.60
2017-12-19T08:32:29.789Z,10.10
2017-12-19T08:34:58.051Z,11.50
2017-12-19T08:37:26.390Z,10.90
2017-12-19T08:39:54.691Z,9.85
2017-12-19T08:42:22.972Z,11.18
2017-12-19T08:44:51.243Z,12.32
2017-12-19T08:47:19.554Z,10.90
2017-12-19T08:49:49.055Z,12.10
2017-12-19T08:52:17.383Z,10.35
2017-12-19T08:54:45.661Z,10.80
2017-12-19T08:57:13.965Z,11.03
2017-12-19T08:59:42.254Z,11.70
2017-12-19T09:02:10.860Z,11.63
2017-12-19T09:04:39.123Z,11.47
2017-12-19T09:07:07.409Z,12.10
2017-12-19T09:09:35.756Z,11.00
2017-12-19T09:12:03.994Z,12.43
2017-12-19T09:14:32.658Z,10.73
2017-12-19T09:17:00.955Z,10.33
2017-12-19T09:19:29.778Z,9.90
2017-12-19T09:21:58.055Z,11.50
2017-12-19T09:24:26.356Z,10.50
2017-12-19T09:26:54.636Z,10.70
2017-12-19T09:29:22.943Z,10.93
2017-12-19T09:31:51.223Z,11.07
2017-12-19T09:34:19.659Z,9.60
2017-12-19T09:36:47.899Z,10.37
2017-12-19T09:39:16.192Z,11.48
2017-12-19T09:41:44.655Z,11.20
2017-12-19T09:44:12.919Z,11.60
2017-12-19T09:46:41.232Z,10.40
2017-12-19T09:49:09.594Z,12.80
2017-12-19T09:51:37.880Z,10.10
2017-12-19T09:54:06.195Z,10.00
2017-12-19T09:56:34.525Z,11.40
2017-12-19T09:59:02.887Z,11.47
2017-12-19T10:01:31.183Z,10.43
2017-12-19T10:03:59.766Z,11.63
2017-12-19T10:06:28.087Z,10.50
2017-12-19T10:08:56.436Z,10.20
2017-12-19T10:11:24.789Z,11.73
2017-12-19T10:13:53.131Z,10.43
2017-12-19T10:16:21.439Z,10.80
2017-12-19T10:18:49.790Z,10.30
2017-12-19T10:21:18.047Z,10.17
2017-12-19T10:23:46.465Z,10.27
2017-12-19T10:26:14.754Z,10.23
2017-12-19T10:28:43.075Z,10.23
2017-12-19T10:31:11.392Z,10.63
2017-12-19T10:33:39.832Z,12.03
2017-12-19T10:36:08.087Z,10.07
2017-12-19T10:38:36.496Z,9.80
2017-12-19T10:41:05.792Z,10.50
2017-12-19T10:43:34.163Z,11.10
2017-12-19T10:46:02.434Z,12.03
2017-12-19T10:48:30.731Z,12.33
2017-12-19T10:50:59.035Z,10.77
2017-12-19T10:53:27.320Z,11.67
2017-12-19T10:55:55.676Z,12.30
2017-12-19T10:58:24.026Z,12.43
2017-12-19T11:00:52.343Z,10.10
2017-12-19T11:03:20.627Z,11.63
2017-12-19T11:05:48.928Z,11.57
2017-12-19T11:08:17.194Z,11.82
2017-12-19T11:10:45.541Z,10.40
2017-12-19T11:13:13.847Z,12.23
2017-12-19T11:15:42.320Z,12.03
2017-12-19T11:18:10.676Z,10.73
2017-12-19T11:20:39.078Z,8.87
2017-12-19T11:23:07.315Z,9.97
2017-12-19T11:25:35.772Z,10.40
2017-12-19T11:28:04.073Z,11.00
2017-12-19T11:30:32.343Z,10.80
2017-12-19T11:33:00.655Z,10.17
2017-12-19T11:35:28.967Z,10.05
2017-12-19T11:37:57.263Z,9.90
2017-12-19T11:40:25.536Z,10.18
2017-12-19T11:42:53.834Z,9.90
2017-12-19T11:45:22.100Z,10.60
2017-12-19T11:47:50.414Z,9.70
2017-12-19T11:50:18.736Z,10.00
2017-12-19T11:52:47.070Z,10.30
2017-12-19T11:55:15.339Z,9.10
2017-12-19T11:57:43.623Z,10.17
2017-12-19T12:00:12.603Z,9.52
2017-12-19T12:02:40.987Z,10.67
2017-12-19T12:05:09.602Z,10.63
2017-12-19T12:07:37.887Z,10.27
2017-12-19T12:10:06.228Z,11.27
2017-12-19T12:12:35.080Z,9.37
2017-12-19T12:15:03.436Z,10.20
2017-12-19T12:17:31.712Z,10.50
2017-12-19T12:20:00.007Z,10.57
2017-12-19T12:22:28.278Z,10.80
2017-12-19T12:24:56.563Z,9.50
2017-12-19T12:27:24.885Z,10.57
2017-12-19T12:29:53.181Z,9.50
2017-12-19T12:32:21.492Z,10.05
2017-12-19T12:34:49.763Z,10.43
2017-12-19T12:37:18.062Z,10.03
2017-12-19T12:39:46.867Z,10.27
2017-12-19T12:42:15.219Z,10.03
2017-12-19T12:44:43.518Z,9.10
2017-12-19T12:47:11.812Z,9.85
2017-12-19T12:49:40.125Z,10.67
2017-12-19T12:52:08.555Z,8.70
2017-12-19T12:54:36.868Z,8.90
2017-12-19T12:57:05.238Z,10.13
2017-12-19T12:59:33.522Z,9.73
2017-12-19T13:02:02.815Z,8.87
2017-12-19T13:04:31.227Z,10.70
2017-12-19T13:06:59.487Z,9.43
2017-12-19T13:09:27.815Z,9.93
2017-12-19T13:11:56.074Z,9.50
2017-12-19T13:14:24.376Z,10.17
2017-12-19T13:16:52.671Z,10.50
2017-12-19T13:19:21.010Z,9.80
2017-12-19T13:21:49.300Z,10.50
2017-12-19T13:24:17.639Z,11.10
2017-12-19T13:26:45.940Z,12.00
2017-12-19T13:29:14.278Z,10.93
2017-12-19T13:31:42.569Z,10.50
2017-12-19T13:34:11.088Z,10.33
2017-12-19T13:36:39.392Z,11.50
2017-12-19T13:39:07.699Z,11.30
2017-12-19T13:41:36.089Z,11.57
2017-12-19T13:44:04.356Z,11.50
2017-12-19T13:46:32.669Z,10.97
2017-12-19T13:49:00.926Z,11.90
2017-12-19T13:51:29.247Z,16.03
2017-12-19T13:53:57.540Z,13.13
2017-12-19T13:56:25.845Z,13.50
2017-12-19T13:58:54.125Z,12.67
2017-12-19T14:01:22.445Z,13.88
2017-12-19T14:03:50.779Z,14.30
2017-12-19T14:06:19.071Z,13.10
2017-12-19T14:08:47.376Z,12.80
2017-12-19T14:11:15.663Z,13.20
2017-12-19T14:13:43.964Z,11.70
2017-12-19T14:16:12.247Z,12.80
2017-12-19T14:18:40.556Z,11.80
2017-12-19T14:21:08.833Z,10.98
2017-12-19T14:23:37.203Z,11.10
2017-12-19T14:26:05.504Z,11.63
2017-12-19T14:28:33.839Z,13.05
2017-12-19T14:31:02.127Z,11.50
2017-12-19T14:33:30.788Z,10.80
2017-12-19T14:35:59.052Z,10.43
2017-12-19T14:38:27.365Z,11.63
2017-12-19T14:40:55.652Z,10.53
2017-12-19T14:43:23.924Z,10.50
2017-12-19T14:45:52.227Z,10.40
2017-12-19T14:48:20.515Z,10.10
2017-12-19T14:50:48.813Z,11.03
2017-12-19T14:53:17.097Z,11.15
2017-12-19T14:55:45.386Z,11.50
2017-12-19T14:58:13.690Z,10.47
2017-12-19T15:00:42.143Z,11.37
2017-12-19T15:03:10.420Z,11.10
2017-12-19T15:05:38.742Z,9.20
2017-12-19T15:08:07.067Z,10.17
2017-12-19T15:10:35.391Z,10.37
2017-12-19T15:13:04.488Z,10.60
2017-12-19T15:15:33.074Z,10.00
2017-12-19T15:18:01.349Z,11.40
2017-12-19T15:20:29.608Z,11.90
2017-12-19T15:22:57.934Z,12.20
2017-12-19T15:25:26.224Z,11.60
2017-12-19T15:27:54.518Z,10.30
2017-12-19T15:30:22.835Z,10.90
2017-12-19T15:32:51.227Z,11.23
2017-12-19T15:35:19.520Z,11.98
2017-12-19T15:37:47.864Z,11.90
2017-12-19T15:40:16.177Z,12.00
2017-12-19T15:42:44.493Z,11.27
2017-12-19T15:45:12.903Z,11.53
2017-12-19T15:47:41.179Z,12.10
2017-12-19T15:50:09.474Z,13.43
2017-12-19T15:52:38.451Z,12.57
2017-12-19T15:55:06.780Z,12.50
2017-12-19T15:57:35.058Z,13.20
2017-12-19T16:00:03.358Z,13.73
2017-12-19T16:02:31.667Z,12.10
2017-12-19T16:05:01.532Z,12.27
2017-12-19T16:07:30.470Z,14.27
2017-12-19T16:09:58.811Z,13.33
2017-12-19T16:12:27.078Z,14.00
2017-12-19T16:14:55.436Z,12.90
2017-12-19T16:17:23.844Z,12.67
2017-12-19T16:19:52.092Z,13.77
2017-12-19T16:22:20.413Z,13.55
2017-12-19T16:24:48.671Z,15.93
2017-12-19T16:27:16.976Z,14.60
2017-12-19T16:29:45.256Z,15.30
2017-12-19T16:32:13.568Z,13.70
2017-12-19T16:34:41.879Z,11.97
2017-12-19T16:37:10.956Z,13.00
2017-12-19T16:39:39.244Z,12.57
2017-12-19T16:42:07.570Z,15.40
2017-12-19T16:44:36.135Z,13.80
2017-12-19T16:47:05.240Z,12.48
2017-12-19T16:49:33.578Z,13.60
2017-12-19T16:52:01.822Z,12.93
2017-12-19T16:54:30.147Z,11.90
2017-12-19T16:56:58.417Z,12.67
2017-12-19T16:59:26.729Z,12.17
2017-12-19T17:01:55.009Z,13.70
2017-12-19T17:04:23.333Z,13.75
2017-12-19T17:06:51.840Z,11.53
2017-12-19T17:09:20.187Z,14.80
2017-12-19T17:11:48.436Z,12.80
2017-12-19T17:14:16.873Z,13.50
2017-12-19T17:16:45.155Z,12.90
2017-12-19T17:19:13.464Z,13.63
2017-12-19T17:21:41.764Z,13.13
2017-12-19T17:24:10.086Z,14.35
2017-12-19T17:26:38.379Z,14.77
2017-12-19T17:29:06.672Z,13.63
2017-12-19T17:31:35.037Z,19.40
2017-12-19T17:34:03.300Z,15.17
2017-12-19T17:36:31.599Z,14.30
2017-12-19T17:38:59.871Z,14.23
2017-12-19T17:41:28.222Z,14.63
2017-12-19T17:43:56.470Z,14.27
2017-12-19T17:46:24.756Z,14.17
2017-12-19T17:48:53.085Z,13.20
2017-12-19T17:51:21.358Z,13.23
2017-12-19T17:53:49.658Z,16.50
2017-12-19T17:56:17.936Z,14.50
2017-12-19T17:58:46.239Z,12.70
2017-12-19T18:01:14.530Z,13.00
2017-12-19T18:03:42.831Z,12.33
2017-12-19T18:06:11.141Z,13.30
2017-12-19T18:08:39.422Z,12.27
2017-12-19T18:11:07.729Z,12.20
2017-12-19T18:13:36.005Z,12.07
2017-12-19T18:16:04.424Z,11.90
2017-12-19T18:18:32.699Z,12.50
2017-12-19T18:21:01.030Z,12.30
2017-12-19T18:23:29.325Z,12.27
2017-12-19T18:25:57.628Z,12.00
2017-12-19T18:28:25.936Z,11.63
2017-12-19T18:30:54.211Z,11.73
2017-12-19T18:33:22.554Z,11.73
2017-12-19T18:35:50.849Z,11.40
2017-12-19T18:38:19.099Z,12.23
2017-12-19T18:40:47.386Z,12.70
2017-12-19T18:43:15.695Z,11.47
2017-12-19T18:45:43.977Z,12.40
2017-12-19T18:48:12.266Z,11.60
2017-12-19T18:50:40.535Z,11.63
2017-12-19T18:53:08.892Z,10.50
2017-12-19T18:55:38.075Z,10.50
2017-12-19T18:58:06.400Z,10.00
2017-12-19T19:00:34.705Z,11.05
2017-12-19T19:03:02.988Z,11.07
2017-12-19T19:05:32.111Z,11.30
2017-12-19T19:08:00.403Z,11.73
2017-12-19T19:10:28.754Z,10.37
2017-12-19T19:12:56.992Z,11.33
2017-12-19T19:15:25.280Z,11.13
2017-12-19T19:17:53.548Z,11.03
2017-12-19T19:20:21.847Z,10.87
2017-12-19T19:22:50.135Z,9.67
2017-12-19T19:25:18.428Z,9.77
2017-12-19T19:27:46.704Z,11.00
2017-12-19T19:30:15.030Z,11.20
2017-12-19T19:32:43.306Z,9.80
2017-12-19T19:35:11.583Z,9.63
2017-12-19T19:37:39.859Z,9.60
2017-12-19T19:40:08.157Z,9.10
2017-12-19T19:42:36.441Z,9.10
2017-12-19T19:45:04.820Z,8.93
2017-12-19T19:47:33.096Z,8.70
2017-12-19T19:50:02.455Z,9.30
2017-12-19T19:52:30.723Z,8.80
2017-12-19T19:54:59.008Z,8.80
2017-12-19T19:57:27.308Z,9.67
2017-12-19T19:59:55.601Z,9.43
2017-12-19T20:02:23.902Z,10.48
2017-12-19T20:04:52.193Z,9.40
2017-12-19T20:07:20.468Z,9.63
2017-12-19T20:09:48.748Z,8.77
2017-12-19T20:12:17.041Z,10.23
2017-12-19T20:14:45.340Z,9.70
2017-12-19T20:17:14.444Z,10.60
2017-12-19T20:19:42.743Z,9.77
2017-12-19T20:22:11.036Z,9.88
2017-12-19T20:24:39.364Z,9.60
2017-12-19T20:27:07.652Z,8.80
2017-12-19T20:29:35.935Z,9.27
2017-12-19T20:32:04.397Z,10.10
2017-12-19T20:34:32.668Z,9.27
2017-12-19T20:37:01.169Z,9.50
2017-12-19T20:39:29.445Z,9.20
2017-12-19T20:41:57.735Z,9.93
2017-12-19T20:44:26.032Z,9.32
2017-12-19T20:46:54.353Z,7.55
2017-12-19T20:49:22.654Z,7.60
2017-12-19T20:51:50.936Z,7.30
2017-12-19T20:54:19.219Z,8.38
2017-12-19T20:56:47.498Z,8.20
2017-12-19T20:59:15.781Z,7.53
2017-12-19T21:01:44.039Z,7.83
2017-12-19T21:04:12.327Z,7.68
2017-12-19T21:06:40.604Z,7.77
2017-12-19T21:09:08.892Z,8.27
2017-12-19T21:11:37.158Z,13.90
2017-12-19T21:14:05.452Z,8.80
2017-12-19T21:16:33.794Z,8.97
2017-12-19T21:19:02.062Z,8.33
2017-12-19T21:21:30.336Z,7.83
2017-12-19T21:23:58.603Z,7.90
2017-12-19T21:26:26.891Z,8.70
2017-12-19T21:28:55.173Z,8.50
2017-12-19T21:31:23.468Z,7.62
2017-12-19T21:33:51.725Z,7.60
2017-12-19T21:36:20.033Z,7.50
2017-12-19T21:38:48.300Z,8.20
2017-12-19T21:41:16.620Z,11.25
2017-12-19T21:43:44.922Z,8.30
2017-12-19T21:46:13.248Z,9.50
2017-12-19T21:48:41.502Z,7.65
2017-12-19T21:51:09.839Z,9.73
2017-12-19T21:53:38.132Z,10.00
2017-12-19T21:56:06.407Z,8.97
2017-12-19T21:58:34.700Z,8.20
2017-12-19T22:01:02.982Z,7.37
2017-12-19T22:03:32.141Z,7.90
2017-12-19T22:06:00.435Z,7.60
2017-12-19T22:08:28.725Z,7.40
2017-12-19T22:10:57.062Z,7.50
2017-12-19T22:13:25.308Z,8.00
2017-12-19T22:15:53.589Z,7.63
2017-12-19T22:18:22.021Z,7.55
2017-12-19T22:20:50.291Z,7.13
2017-12-19T22:23:18.565Z,7.20
2017-12-19T22:25:46.847Z,7.60
2017-12-19T22:28:15.187Z,8.70
2017-12-19T22:30:43.511Z,7.43
2017-12-19T22:33:11.780Z,7.22
2017-12-19T22:35:40.056Z,6.63
2017-12-19T22:38:08.326Z,6.70
2017-12-19T22:40:36.658Z,8.07
2017-12-19T22:43:05.162Z,7.03
2017-12-19T22:45:33.479Z,6.70
2017-12-19T22:48:01.762Z,6.73
2017-12-19T22:50:30.007Z,7.50
2017-12-19T22:52:58.415Z,6.37
2017-12-19T22:55:26.695Z,6.40
2017-12-19T22:57:54.974Z,6.07
2017-12-19T23:00:23.261Z,5.55
2017-12-19T23:02:51.550Z,6.20
2017-12-19T23:05:19.806Z,6.23
2017-12-19T23:07:48.924Z,6.07
2017-12-19T23:10:17.201Z,5.90
2017-12-19T23:12:45.476Z,6.20
2017-12-19T23:15:13.770Z,6.27
2017-12-19T23:17:42.012Z,6.97
2017-12-19T23:20:10.298Z,5.93
2017-12-19T23:22:38.559Z,6.13
2017-12-19T23:25:06.857Z,5.80
2017-12-19T23:27:35.111Z,6.80
2017-12-19T23:30:03.413Z,6.23
2017-12-19T23:32:31.672Z,7.30
2017-12-19T23:34:59.965Z,6.80
2017-12-19T23:37:28.224Z,7.17
2017-12-19T23:39:56.516Z,8.10
2017-12-19T23:42:24.843Z,7.23
2017-12-19T23:44:53.082Z,5.60
2017-12-19T23:47:21.335Z,6.35
2017-12-19T23:49:49.642Z,5.43
2017-12-19T23:52:17.929Z,5.37
2017-12-19T23:54:46.492Z,4.90
2017-12-19T23:57:14.769Z,5.20
2017-12-19T23:59:43.026Z,5.13
